createdAt,value
2022-10-26T00:00:51.639Z,94.76
2022-10-26T00:01:51.745Z,95.07
2022-10-26T00:02:52.047Z,94.66
2022-10-26T00:03:51.601Z,94.56
2022-10-26T00:04:51.605Z,94.97
2022-10-26T00:05:51.582Z,95.07
2022-10-26T00:06:51.559Z,94.97
2022-10-26T00:07:51.565Z,95.48
2022-10-26T00:08:51.548Z,95.58
2022-10-26T00:09:51.533Z,95.68
2022-10-26T00:10:51.537Z,95.78
2022-10-26T00:11:51.525Z,95.48
2022-10-26T00:12:51.725Z,94.56
2022-10-26T00:13:51.524Z,94.46
2022-10-26T00:14:51.480Z,95.28
2022-10-26T00:15:51.511Z,94.76
2022-10-26T00:16:51.495Z,94.56
2022-10-26T00:17:51.655Z,94.97
2022-10-26T00:18:51.430Z,95.68
2022-10-26T00:19:51.424Z,95.28
2022-10-26T00:20:51.420Z,95.68
2022-10-26T00:21:51.402Z,95.78
2022-10-26T00:22:51.404Z,95.07
2022-10-26T00:23:51.398Z,95.78
2022-10-26T00:24:51.380Z,96.19
2022-10-26T00:25:51.362Z,94.87
2022-10-26T00:26:51.363Z,94.87
2022-10-26T00:27:51.614Z,95.07
2022-10-26T00:28:51.343Z,94.35
2022-10-26T00:29:51.321Z,94.76
2022-10-26T00:30:51.310Z,94.97
2022-10-26T00:31:51.293Z,94.87
2022-10-26T00:32:51.291Z,95.28
2022-10-26T00:33:51.276Z,94.76
2022-10-26T00:34:51.284Z,94.35
2022-10-26T00:35:51.255Z,95.17
2022-10-26T00:36:51.241Z,94.35
2022-10-26T00:37:51.592Z,94.66
2022-10-26T00:38:51.283Z,94.56
2022-10-26T00:39:51.216Z,94.87
2022-10-26T00:40:51.273Z,94.56
2022-10-26T00:41:51.194Z,94.35
2022-10-26T00:42:51.439Z,94.56
2022-10-26T00:43:51.172Z,94.66
2022-10-26T00:44:51.165Z,94.66
2022-10-26T00:45:51.177Z,94.15
2022-10-26T00:46:51.167Z,94.15
2022-10-26T00:47:51.136Z,94.30
2022-10-26T00:48:51.110Z,94.87
2022-10-26T00:49:51.100Z,94.97
2022-10-26T00:50:51.088Z,95.07
2022-10-26T00:51:51.111Z,94.91
2022-10-26T00:52:51.369Z,94.91
2022-10-26T00:53:51.069Z,95.42
2022-10-26T00:54:51.052Z,95.01
2022-10-26T00:55:51.035Z,95.21
2022-10-26T00:56:51.038Z,94.91
2022-10-26T00:57:51.014Z,94.91
2022-10-26T00:58:51.017Z,94.91
2022-10-26T00:59:51.001Z,95.21
2022-10-26T01:00:50.993Z,95.12
2022-10-26T01:01:51.058Z,94.91
2022-10-26T01:02:51.351Z,95.01
2022-10-26T01:03:51.063Z,94.91
2022-10-26T01:04:50.953Z,95.01
2022-10-26T01:05:50.932Z,95.21
2022-10-26T01:06:50.919Z,95.12
2022-10-26T01:07:51.175Z,94.91
2022-10-26T01:08:50.897Z,94.71
2022-10-26T01:09:50.925Z,94.91
2022-10-26T05:01:05.311Z,98.99
2022-10-26T05:02:06.174Z,98.89
2022-10-26T05:03:05.952Z,98.99
2022-10-26T05:04:05.932Z,98.99
2022-10-26T05:05:07.908Z,98.68
2022-10-26T05:06:05.963Z,98.48
2022-10-26T05:07:05.901Z,98.18
2022-10-26T05:08:05.891Z,97.66
2022-10-26T05:09:05.890Z,98.07
2022-10-26T05:10:05.871Z,98.38
2022-10-26T05:11:05.862Z,98.38
2022-10-26T05:12:05.865Z,97.97
2022-10-26T05:13:05.852Z,97.87
2022-10-26T05:14:05.834Z,98.38
2022-10-26T05:15:07.822Z,98.89
2022-10-26T05:16:05.803Z,98.48
2022-10-26T05:17:11.815Z,98.48
2022-10-26T05:18:05.820Z,98.58
2022-10-26T05:19:05.774Z,98.79
2022-10-26T05:20:05.769Z,98.79
2022-10-26T05:21:05.751Z,98.58
2022-10-26T05:22:05.738Z,98.79
2022-10-26T05:23:05.752Z,98.89
2022-10-26T05:24:08.779Z,99.09
2022-10-26T05:25:05.719Z,99.09
2022-10-26T05:26:05.693Z,98.89
2022-10-26T05:27:05.689Z,98.07
2022-10-26T05:28:05.673Z,97.87
2022-10-26T05:29:05.699Z,98.18
2022-10-26T05:31:05.642Z,99.09
2022-10-26T05:32:05.627Z,99.19
2022-10-26T05:33:05.625Z,99.09
2022-10-26T05:34:05.647Z,98.79
2022-10-26T05:35:05.609Z,97.66
2022-10-26T05:36:05.588Z,97.36
2022-10-26T05:37:05.582Z,97.05
2022-10-26T05:38:05.569Z,97.25
2022-10-26T05:39:05.574Z,98.18
2022-10-26T05:40:05.553Z,98.38
2022-10-26T05:41:05.573Z,98.38
2022-10-26T05:42:05.526Z,98.79
2022-10-26T05:43:05.517Z,98.68
2022-10-26T05:44:05.502Z,98.99
2022-10-26T05:45:05.439Z,99.29
2022-10-26T05:46:05.426Z,98.07
2022-10-26T05:47:05.438Z,97.66
2022-10-26T05:48:05.413Z,97.36
2022-10-26T05:49:05.437Z,97.46
2022-10-26T05:50:05.399Z,97.46
2022-10-26T05:51:05.375Z,97.46
2022-10-26T05:52:05.369Z,98.07
2022-10-26T05:53:05.367Z,98.27
2022-10-26T05:54:05.350Z,98.58
2022-10-26T05:56:08.544Z,98.79
2022-10-26T05:57:05.321Z,98.48
2022-10-26T05:58:05.300Z,97.66
2022-10-26T05:59:05.293Z,97.36
2022-10-26T06:00:05.283Z,97.25
2022-10-26T06:01:05.269Z,97.77
2022-10-26T06:02:05.471Z,97.56
2022-10-26T06:03:05.245Z,97.56
2022-10-26T06:04:05.264Z,98.18
2022-10-26T06:05:05.226Z,98.07
2022-10-26T06:06:07.310Z,97.77
2022-10-26T06:07:05.236Z,97.66
2022-10-26T06:08:05.196Z,97.16
2022-10-26T06:09:05.183Z,97.25
2022-10-26T06:10:05.175Z,97.25
2022-10-26T06:11:05.193Z,97.46
2022-10-26T06:12:05.155Z,97.46
2022-10-26T06:13:05.147Z,97.66
2022-10-26T06:14:05.127Z,98.18
2022-10-26T06:15:05.123Z,98.38
2022-10-26T06:16:05.116Z,98.58
2022-10-26T06:17:05.110Z,98.79
2022-10-26T06:18:05.086Z,98.89
2022-10-26T06:19:05.074Z,98.94
2022-10-26T06:20:05.173Z,98.02
2022-10-26T06:21:05.055Z,97.52
2022-10-26T06:22:05.045Z,97.92
2022-10-26T06:23:05.043Z,97.41
2022-10-26T06:24:05.045Z,97.31
2022-10-26T06:25:05.012Z,96.91
2022-10-26T06:26:05.006Z,96.80
2022-10-26T06:27:04.991Z,96.91
2022-10-26T06:28:04.978Z,97.00
2022-10-26T06:29:05.003Z,97.21
2022-10-26T06:30:04.958Z,97.21
2022-10-26T06:31:04.951Z,97.52
2022-10-26T06:32:04.952Z,97.11
2022-10-26T06:33:06.352Z,97.62
2022-10-26T06:34:04.921Z,98.02
2022-10-26T06:35:07.116Z,97.72
2022-10-26T06:36:04.889Z,97.62
2022-10-26T06:37:04.890Z,97.92
2022-10-26T06:38:04.877Z,98.23
2022-10-26T06:39:04.875Z,98.02
2022-10-26T06:40:04.854Z,98.13
2022-10-26T06:41:04.861Z,97.92
2022-10-26T06:42:04.830Z,98.13
2022-10-26T06:43:04.811Z,97.82
2022-10-26T06:44:04.817Z,97.31
2022-10-26T06:45:04.937Z,97.31
2022-10-26T06:46:04.787Z,97.92
2022-10-26T06:47:04.787Z,97.31
2022-10-26T06:48:04.778Z,96.80
2022-10-26T06:49:04.777Z,97.00
2022-10-26T06:50:04.749Z,97.72
2022-10-26T06:51:04.728Z,97.21
2022-10-26T06:52:04.738Z,97.52
2022-10-26T06:53:04.712Z,97.21
2022-10-26T06:54:04.706Z,97.16
2022-10-26T06:55:04.696Z,97.31
2022-10-26T06:56:04.677Z,96.76
2022-10-26T06:57:04.663Z,96.66
2022-10-26T06:58:04.830Z,96.25
2022-10-26T06:59:06.942Z,96.04
2022-10-26T07:00:04.639Z,96.30
2022-10-26T07:01:04.676Z,96.80
2022-10-26T07:02:06.522Z,96.39
2022-10-26T07:03:04.652Z,96.19
2022-10-26T07:04:04.606Z,96.39
2022-10-26T07:05:04.600Z,96.39
2022-10-26T07:06:04.575Z,97.11
2022-10-26T07:07:04.565Z,97.31
2022-10-26T07:08:04.562Z,97.52
2022-10-26T07:09:04.539Z,97.72
2022-10-26T07:10:04.539Z,97.72
2022-10-26T07:11:04.519Z,97.98
2022-10-26T07:12:04.535Z,98.18
2022-10-26T07:13:04.498Z,97.98
2022-10-26T07:14:04.515Z,97.78
2022-10-26T07:15:04.575Z,96.66
2022-10-26T07:16:04.522Z,96.55
2022-10-26T07:17:04.456Z,97.16
2022-10-26T07:18:04.445Z,97.37
2022-10-26T07:19:04.429Z,97.57
2022-10-26T07:20:04.462Z,97.16
2022-10-26T07:21:04.429Z,97.06
2022-10-26T07:22:04.405Z,96.86
2022-10-26T07:23:04.392Z,97.57
2022-10-26T07:24:04.416Z,97.88
2022-10-26T07:25:04.367Z,97.27
2022-10-26T07:26:04.475Z,97.37
2022-10-26T07:27:04.355Z,97.16
2022-10-26T07:28:04.350Z,97.12
2022-10-26T07:29:04.330Z,96.86
2022-10-26T07:30:04.389Z,96.51
2022-10-26T07:31:04.308Z,96.20
2022-10-26T07:32:04.296Z,95.90
2022-10-26T07:33:04.300Z,95.59
2022-10-26T07:34:04.280Z,96.00
2022-10-26T07:35:04.275Z,95.90
2022-10-26T07:36:04.268Z,96.51
2022-10-26T07:37:04.249Z,96.20
2022-10-26T07:38:04.231Z,96.41
2022-10-26T07:39:04.235Z,96.10
2022-10-26T07:40:06.563Z,96.00
2022-10-26T07:41:04.223Z,95.79
2022-10-26T07:42:04.188Z,95.90
2022-10-26T07:43:04.176Z,96.10
2022-10-26T07:44:04.169Z,96.41
2022-10-26T07:45:04.152Z,96.51
2022-10-26T07:46:04.145Z,96.81
2022-10-26T07:47:04.159Z,96.92
2022-10-26T07:48:04.129Z,96.71
2022-10-26T07:49:04.115Z,96.61
2022-10-26T07:50:04.135Z,95.95
2022-10-26T07:51:04.094Z,96.36
2022-10-26T07:52:04.079Z,96.67
2022-10-26T07:53:04.117Z,96.06
2022-10-26T07:54:04.057Z,95.75
2022-10-26T07:55:04.051Z,96.06
2022-10-26T07:56:04.043Z,95.95
2022-10-26T07:58:04.031Z,95.34
2022-10-26T07:59:04.033Z,95.95
2022-10-26T08:00:03.995Z,96.26
2022-10-26T08:01:04.176Z,96.87
2022-10-26T08:02:04.015Z,96.46
2022-10-26T08:03:03.966Z,96.46
2022-10-26T08:04:03.967Z,96.56
2022-10-26T08:05:03.953Z,96.87
2022-10-26T08:06:03.990Z,97.07
2022-10-26T08:07:03.981Z,96.97
2022-10-26T08:08:03.910Z,96.67
2022-10-26T08:09:03.913Z,96.46
2022-10-26T08:10:03.892Z,96.92
2022-10-26T08:11:03.885Z,96.72
2022-10-26T08:12:03.879Z,96.42
2022-10-26T08:13:03.878Z,96.31
2022-10-26T08:14:03.844Z,96.31
2022-10-26T08:15:03.839Z,96.42
2022-10-26T08:16:03.949Z,96.22
2022-10-26T08:17:03.821Z,96.72
2022-10-26T08:18:03.815Z,96.72
2022-10-26T08:19:03.794Z,96.52
2022-10-26T08:20:03.782Z,96.52
2022-10-26T08:21:10.797Z,96.62
2022-10-26T08:22:03.849Z,96.62
2022-10-26T08:23:03.747Z,96.68
2022-10-26T08:24:03.766Z,96.78
2022-10-26T08:25:03.726Z,96.58
2022-10-26T08:26:03.720Z,96.37
2022-10-26T08:27:03.705Z,96.07
2022-10-26T08:28:03.698Z,95.86
2022-10-26T08:29:03.688Z,95.97
2022-10-26T08:30:03.821Z,96.78
2022-10-26T08:31:03.663Z,95.97
2022-10-26T08:32:03.659Z,96.17
2022-10-26T08:33:03.668Z,95.41
2022-10-26T08:34:03.632Z,96.33
2022-10-26T08:35:03.634Z,95.10
2022-10-26T08:36:03.617Z,95.31
2022-10-26T08:37:03.604Z,95.10
2022-10-26T08:38:03.607Z,94.70
2022-10-26T08:39:03.577Z,93.99
2022-10-26T08:40:03.602Z,93.99
2022-10-26T08:41:03.556Z,94.70
2022-10-26T08:42:03.545Z,94.86
2022-10-26T08:43:03.555Z,94.45
2022-10-26T08:44:03.537Z,94.15
2022-10-26T08:45:03.527Z,93.44
2022-10-26T08:46:03.526Z,93.24
2022-10-26T08:47:03.519Z,93.95
2022-10-26T08:48:03.494Z,92.99
2022-10-26T08:49:03.464Z,93.60
2022-10-26T08:50:03.459Z,94.31
2022-10-26T08:51:03.455Z,92.79
2022-10-26T08:52:03.467Z,93.19
2022-10-26T08:53:03.426Z,92.48
2022-10-26T08:54:03.424Z,93.29
2022-10-26T08:55:03.405Z,92.99
2022-10-26T08:56:03.398Z,92.94
2022-10-26T08:57:03.385Z,92.94
2022-10-26T08:58:03.399Z,92.84
2022-10-26T08:59:03.363Z,91.22
2022-10-26T09:00:03.359Z,92.33
2022-10-26T09:01:03.430Z,93.15
2022-10-26T09:02:03.393Z,92.24
2022-10-26T09:03:03.360Z,91.83
2022-10-26T09:04:03.432Z,92.13
2022-10-26T09:05:03.308Z,90.31
2022-10-26T09:06:03.296Z,91.58
2022-10-26T09:07:03.276Z,91.38
2022-10-26T09:08:03.271Z,91.68
2022-10-26T09:09:03.276Z,90.67
2022-10-26T09:10:03.252Z,89.76
2022-10-26T09:11:03.235Z,91.28
2022-10-26T09:12:03.237Z,91.99
2022-10-26T09:13:03.213Z,90.47
2022-10-26T09:14:03.210Z,90.16
2022-10-26T09:15:03.211Z,90.47
2022-10-26T09:16:03.196Z,91.34
2022-10-26T09:17:03.165Z,91.74
2022-10-26T09:18:03.172Z,91.34
2022-10-26T09:19:03.257Z,90.73
2022-10-26T09:20:03.141Z,89.81
2022-10-26T09:21:03.142Z,91.44
2022-10-26T09:22:03.128Z,90.73
2022-10-26T09:23:03.108Z,90.32
2022-10-26T09:24:03.109Z,91.64
2022-10-26T09:25:05.473Z,90.93
2022-10-26T09:26:03.095Z,90.83
2022-10-26T09:27:03.119Z,90.93
2022-10-26T09:28:03.066Z,91.03
2022-10-26T09:29:03.074Z,91.54
2022-10-26T09:30:03.084Z,90.12
2022-10-26T09:31:03.020Z,89.51
2022-10-26T09:32:03.058Z,90.02
2022-10-26T09:33:03.004Z,90.42
2022-10-26T09:34:02.999Z,91.13
2022-10-26T09:35:02.979Z,90.42
2022-10-26T09:36:02.992Z,91.03
2022-10-26T09:37:02.957Z,90.02
2022-10-26T09:38:02.994Z,91.74
2022-10-26T09:39:02.941Z,89.87
2022-10-26T09:40:02.993Z,90.38
2022-10-26T09:41:02.922Z,90.89
2022-10-26T09:42:02.910Z,90.48
2022-10-26T09:43:02.890Z,91.90
2022-10-26T09:44:02.914Z,91.39
2022-10-26T09:45:02.889Z,92.10
2022-10-26T09:46:02.874Z,90.08
2022-10-26T09:47:02.859Z,90.28
2022-10-26T09:48:05.254Z,90.79
2022-10-26T09:50:02.873Z,90.79
2022-10-26T09:51:04.691Z,89.37
2022-10-26T09:52:02.813Z,89.67
2022-10-26T09:53:02.783Z,90.48
2022-10-26T09:54:02.781Z,90.58
2022-10-26T09:55:02.765Z,90.79
2022-10-26T09:56:02.779Z,90.08
2022-10-26T09:57:02.743Z,90.58
2022-10-26T09:58:02.741Z,91.30
2022-10-26T09:59:02.718Z,90.69
2022-10-26T10:00:02.730Z,90.79
2022-10-26T10:01:02.703Z,90.08
2022-10-26T10:02:02.731Z,89.77
2022-10-26T10:03:02.745Z,90.58
2022-10-26T10:04:02.671Z,90.54
2022-10-26T10:05:02.663Z,91.25
2022-10-26T10:06:02.677Z,91.05
2022-10-26T10:07:02.640Z,90.14
2022-10-26T10:08:02.642Z,90.24
2022-10-26T10:09:02.616Z,89.63
2022-10-26T10:10:02.613Z,90.84
2022-10-26T10:11:02.590Z,90.64
2022-10-26T10:12:02.620Z,89.32
2022-10-26T10:13:02.587Z,88.98
2022-10-26T10:14:02.567Z,88.98
2022-10-26T10:15:02.558Z,89.89
2022-10-26T10:16:02.541Z,89.48
2022-10-26T10:17:02.553Z,88.88
2022-10-26T10:18:03.397Z,89.48
2022-10-26T10:19:02.543Z,88.48
2022-10-26T10:20:02.509Z,89.28
2022-10-26T10:21:02.488Z,88.02
2022-10-26T10:22:02.474Z,88.84
2022-10-26T10:23:02.463Z,88.13
2022-10-26T10:24:02.459Z,88.23
2022-10-26T10:25:02.485Z,88.23
2022-10-26T10:26:02.432Z,88.84
2022-10-26T10:27:02.423Z,87.93
2022-10-26T10:28:02.439Z,86.82
2022-10-26T10:29:02.401Z,86.71
2022-10-26T10:30:04.331Z,89.81
2022-10-26T10:31:02.513Z,88.79
2022-10-26T10:32:02.385Z,87.99
2022-10-26T10:33:02.362Z,87.38
2022-10-26T10:34:02.357Z,87.79
2022-10-26T10:35:02.339Z,87.38
2022-10-26T10:36:02.328Z,87.38
2022-10-26T10:37:02.316Z,87.68
2022-10-26T10:38:02.359Z,87.18
2022-10-26T10:39:02.305Z,87.28
2022-10-26T10:40:02.286Z,87.38
2022-10-26T10:41:02.269Z,87.04
2022-10-26T10:42:02.259Z,87.84
2022-10-26T10:43:02.251Z,86.53
2022-10-26T10:44:02.262Z,86.93
2022-10-26T10:45:02.235Z,86.22
2022-10-26T10:46:02.230Z,86.13
2022-10-26T10:47:02.209Z,86.08
2022-10-26T10:48:02.208Z,86.90
2022-10-26T10:49:02.225Z,87.10
2022-10-26T10:50:02.182Z,87.90
2022-10-26T10:51:02.172Z,86.39
2022-10-26T10:52:02.159Z,86.39
2022-10-26T10:53:02.186Z,87.19
2022-10-26T10:54:02.131Z,87.70
2022-10-26T10:55:02.174Z,86.19
2022-10-26T10:56:03.054Z,86.99
2022-10-26T10:57:02.139Z,85.99
2022-10-26T10:58:02.090Z,86.69
2022-10-26T10:59:02.101Z,87.70
2022-10-26T11:00:02.072Z,87.19
2022-10-26T11:01:02.089Z,87.36
2022-10-26T11:02:02.203Z,85.24
2022-10-26T11:03:02.039Z,85.74
2022-10-26T11:04:02.092Z,85.84
2022-10-26T11:05:02.037Z,86.45
2022-10-26T11:06:02.003Z,85.64
2022-10-26T11:07:01.996Z,86.35
2022-10-26T11:08:01.999Z,85.64
2022-10-26T11:09:01.977Z,86.25
2022-10-26T11:10:01.963Z,85.84
2022-10-26T11:11:01.952Z,87.52
2022-10-26T11:12:01.946Z,84.89
2022-10-26T11:13:01.933Z,84.89
2022-10-26T11:14:01.931Z,85.70
2022-10-26T11:15:01.914Z,85.90
2022-10-26T11:16:01.901Z,85.50
2022-10-26T11:18:12.205Z,84.09
2022-10-26T11:19:13.230Z,84.59
2022-10-26T11:20:14.955Z,86.21
2022-10-26T11:21:13.168Z,84.29
2022-10-26T11:22:13.152Z,85.80
2022-10-26T11:23:13.185Z,85.30
2022-10-26T11:24:13.142Z,86.51
2022-10-26T11:25:13.152Z,86.10
2022-10-26T11:26:13.108Z,85.40
2022-10-26T11:27:13.099Z,86.10
2022-10-26T11:28:13.105Z,86.16
2022-10-26T11:29:13.147Z,84.95
2022-10-26T11:30:13.070Z,84.95
2022-10-26T11:31:13.094Z,85.36
2022-10-26T11:32:13.065Z,85.56
2022-10-26T11:33:13.035Z,83.64
2022-10-26T11:34:13.044Z,85.16
2022-10-26T11:35:13.028Z,84.65
2022-10-26T11:36:13.144Z,85.42
2022-10-26T11:37:13.029Z,84.91
2022-10-26T11:38:12.983Z,85.42
2022-10-26T11:39:12.978Z,84.61
2022-10-26T11:40:13.083Z,84.41
2022-10-26T11:41:12.954Z,84.51
2022-10-26T11:42:12.943Z,83.60
2022-10-26T11:43:12.958Z,83.50
2022-10-26T11:44:12.916Z,84.11
2022-10-26T11:45:12.945Z,82.96
2022-10-26T11:46:15.251Z,83.16
2022-10-26T11:47:12.903Z,83.16
2022-10-26T11:48:12.909Z,83.36
2022-10-26T11:49:12.914Z,84.47
2022-10-26T11:50:16.270Z,83.76
2022-10-26T11:51:12.847Z,84.17
2022-10-26T11:52:12.830Z,84.27
2022-10-26T11:53:12.822Z,83.87
2022-10-26T11:54:12.847Z,84.57
2022-10-26T11:55:12.809Z,83.76
2022-10-26T11:56:12.796Z,83.93
2022-10-26T11:57:12.783Z,82.35
2022-10-26T11:58:12.772Z,85.74
2022-10-26T11:59:12.764Z,84.43
2022-10-26T12:00:12.781Z,83.72
2022-10-26T12:01:12.854Z,84.13
2022-10-26T12:02:12.725Z,82.31
2022-10-26T12:03:12.749Z,84.03
2022-10-26T12:04:12.707Z,85.14
2022-10-26T12:05:12.701Z,82.11
2022-10-26T12:06:12.710Z,83.83
2022-10-26T12:07:12.688Z,83.22
2022-10-26T12:08:12.698Z,83.12
2022-10-26T12:09:12.666Z,82.11
2022-10-26T12:10:22.837Z,81.67
2022-10-26T12:11:12.638Z,82.07
2022-10-26T12:12:12.623Z,83.39
2022-10-26T12:13:12.647Z,84.29
2022-10-26T12:14:12.612Z,82.28
2022-10-26T12:16:06.267Z,83.79
2022-10-26T12:17:07.243Z,84.09
2022-10-26T12:18:07.230Z,82.07
2022-10-26T12:19:07.259Z,83.48
2022-10-26T12:20:07.213Z,82.18
2022-10-26T12:21:07.213Z,82.28
2022-10-26T12:22:07.200Z,83.08
2022-10-26T12:23:07.205Z,82.58
2022-10-26T12:24:07.169Z,82.48
2022-10-26T12:25:11.143Z,82.98
2022-10-26T12:26:07.161Z,83.28
2022-10-26T12:27:07.134Z,82.88
2022-10-26T12:28:07.129Z,82.38
2022-10-26T12:29:07.143Z,83.69
2022-10-26T12:30:07.113Z,82.48
2022-10-26T12:31:07.122Z,83.18
2022-10-26T12:32:07.091Z,82.38
2022-10-26T12:33:07.066Z,81.77
2022-10-26T12:34:07.062Z,81.98
2022-10-26T12:35:07.062Z,82.88
2022-10-26T12:37:07.057Z,82.54
2022-10-26T12:38:07.016Z,83.04
2022-10-26T12:39:07.028Z,84.85
2022-10-26T12:40:07.027Z,83.25
2022-10-26T12:41:07.091Z,81.84
2022-10-26T12:42:07.003Z,83.95
2022-10-26T12:43:06.996Z,82.24
2022-10-26T12:44:09.187Z,81.63
2022-10-26T12:45:06.966Z,80.83
2022-10-26T12:46:06.930Z,81.43
2022-10-26T12:47:06.936Z,81.13
2022-10-26T12:48:11.014Z,81.63
2022-10-26T12:49:06.992Z,81.53
2022-10-26T12:50:06.898Z,82.64
2022-10-26T12:51:06.876Z,81.84
2022-10-26T12:52:06.867Z,81.93
2022-10-26T12:53:06.858Z,81.09
2022-10-26T12:54:06.836Z,81.49
2022-10-26T12:55:06.854Z,81.49
2022-10-26T12:56:06.828Z,80.69
2022-10-26T12:57:06.808Z,81.19
2022-10-26T12:58:06.796Z,82.60
2022-10-26T12:59:06.899Z,81.29
2022-10-26T13:00:06.780Z,81.79
2022-10-26T13:01:06.842Z,81.79
2022-10-26T13:02:06.805Z,80.99
2022-10-26T13:03:06.754Z,81.70
2022-10-26T13:04:06.735Z,81.70
2022-10-26T13:05:07.924Z,82.60
2022-10-26T13:06:06.734Z,81.70
2022-10-26T13:07:06.723Z,80.99
2022-10-26T13:08:06.716Z,81.59
2022-10-26T13:09:06.687Z,81.05
2022-10-26T13:10:06.682Z,81.05
2022-10-26T13:11:06.657Z,80.65
2022-10-26T13:12:06.646Z,80.55
2022-10-26T13:13:06.635Z,81.65
2022-10-26T13:14:06.651Z,81.35
2022-10-26T13:15:06.622Z,81.76
2022-10-26T13:16:06.610Z,82.76
2022-10-26T13:17:06.590Z,83.26
2022-10-26T13:18:06.582Z,81.65
2022-10-26T13:19:06.569Z,81.96
2022-10-26T13:20:06.611Z,81.15
2022-10-26T13:21:06.554Z,81.85
2022-10-26T13:22:06.585Z,82.86
2022-10-26T13:23:06.528Z,80.35
2022-10-26T13:24:06.540Z,81.76
2022-10-26T13:25:06.546Z,80.25
2022-10-26T13:26:06.524Z,80.45
2022-10-26T13:27:06.479Z,80.75
2022-10-26T13:28:06.487Z,80.65
2022-10-26T13:29:06.498Z,81.46
2022-10-26T13:30:06.460Z,80.45
2022-10-26T13:31:06.437Z,79.24
2022-10-26T13:32:06.430Z,80.55
2022-10-26T13:33:06.422Z,79.74
2022-10-26T13:34:06.458Z,78.80
2022-10-26T13:35:06.485Z,80.01
2022-10-26T13:36:06.396Z,78.90
2022-10-26T13:37:06.373Z,78.80
2022-10-26T13:38:06.363Z,80.01
2022-10-26T13:39:06.352Z,79.41
2022-10-26T13:40:06.341Z,80.01
2022-10-26T13:41:06.358Z,79.41
2022-10-26T13:42:06.324Z,80.61
2022-10-26T13:43:06.344Z,78.60
2022-10-26T13:44:06.302Z,78.70
2022-10-26T13:45:06.283Z,81.01
2022-10-26T13:46:06.282Z,81.12
2022-10-26T13:47:06.277Z,81.01
2022-10-26T13:48:06.265Z,79.71
2022-10-26T13:49:06.317Z,78.80
2022-10-26T13:50:06.242Z,79.91
2022-10-26T13:51:06.229Z,79.50
2022-10-26T13:52:06.218Z,78.70
2022-10-26T13:53:06.213Z,79.30
2022-10-26T13:54:06.189Z,79.30
2022-10-26T13:55:06.223Z,79.81
2022-10-26T13:56:06.233Z,79.61
2022-10-26T13:57:06.150Z,80.88
2022-10-26T13:58:06.158Z,79.17
2022-10-26T13:59:06.213Z,79.77
2022-10-26T14:00:06.174Z,80.07
2022-10-26T14:01:06.205Z,80.07
2022-10-26T14:02:06.106Z,81.58
2022-10-26T14:03:06.096Z,80.37
2022-10-26T14:04:06.097Z,78.46
2022-10-26T14:05:06.082Z,77.36
2022-10-26T14:06:06.088Z,77.86
2022-10-26T14:07:06.053Z,77.06
2022-10-26T14:08:06.048Z,77.12
2022-10-26T14:09:06.032Z,77.52
2022-10-26T14:10:06.157Z,77.42
2022-10-26T14:11:06.005Z,78.03
2022-10-26T14:12:06.025Z,78.03
2022-10-26T14:13:05.981Z,77.62
2022-10-26T14:14:05.975Z,79.53
2022-10-26T14:15:05.973Z,78.49
2022-10-26T14:16:05.958Z,77.69
2022-10-26T14:17:05.987Z,78.09
2022-10-26T14:18:05.932Z,77.39
2022-10-26T14:19:05.937Z,77.39
2022-10-26T14:20:06.033Z,78.49
2022-10-26T14:21:05.903Z,77.09
2022-10-26T14:22:05.907Z,76.98
2022-10-26T14:23:05.889Z,77.79
2022-10-26T14:24:05.871Z,77.05
2022-10-26T14:25:05.849Z,75.64
2022-10-26T14:26:05.840Z,76.95
2022-10-26T14:27:05.839Z,76.65
2022-10-26T14:28:05.845Z,76.75
2022-10-26T14:29:05.808Z,75.74
2022-10-26T14:30:23.000Z,75.64
2022-10-26T14:31:05.812Z,76.04
2022-10-26T14:32:05.778Z,76.95
2022-10-26T14:33:05.829Z,75.54
2022-10-26T14:34:05.757Z,76.95
2022-10-26T14:35:05.798Z,78.66
2022-10-26T14:36:05.740Z,78.15
2022-10-26T14:37:05.723Z,76.34
2022-10-26T14:38:05.721Z,76.31
2022-10-26T14:39:05.713Z,76.61
2022-10-26T14:40:05.788Z,75.10
2022-10-26T14:41:05.682Z,75.81
2022-10-26T14:42:05.672Z,75.91
2022-10-26T14:43:05.663Z,76.81
2022-10-26T14:44:05.686Z,76.41
2022-10-26T14:45:05.649Z,74.51
2022-10-26T14:46:05.662Z,76.51
2022-10-26T14:47:05.616Z,76.41
2022-10-26T14:48:05.653Z,75.41
2022-10-26T14:49:05.623Z,75.14
2022-10-26T14:50:05.597Z,76.45
2022-10-26T14:51:05.577Z,76.31
2022-10-26T14:52:05.592Z,75.84
2022-10-26T14:53:05.552Z,77.75
2022-10-26T14:54:05.536Z,77.05
2022-10-26T14:55:05.537Z,75.84
2022-10-26T14:56:05.529Z,77.85
2022-10-26T14:57:05.510Z,75.64
2022-10-26T14:58:05.519Z,76.85
2022-10-26T14:59:05.487Z,78.66
2022-10-26T15:00:05.523Z,77.15
2022-10-26T15:01:05.562Z,79.05
2022-10-26T15:02:05.552Z,76.45
2022-10-26T15:03:05.453Z,75.54
2022-10-26T15:04:05.467Z,76.85
2022-10-26T15:05:05.414Z,78.25
2022-10-26T15:06:05.408Z,79.46
2022-10-26T15:07:05.454Z,75.64
2022-10-26T15:08:05.394Z,77.55
2022-10-26T15:09:05.378Z,77.15
2022-10-26T15:10:05.367Z,78.35
2022-10-26T15:11:05.356Z,78.05
2022-10-26T15:12:05.340Z,78.45
2022-10-26T15:13:05.354Z,77.89
2022-10-26T15:14:05.361Z,79.60
2022-10-26T15:15:06.645Z,80.30
2022-10-26T15:16:05.310Z,82.00
2022-10-26T15:17:05.317Z,80.80
2022-10-26T15:18:05.285Z,78.09
2022-10-26T15:19:05.267Z,81.90
2022-10-26T15:20:05.289Z,82.40
2022-10-26T15:21:05.244Z,82.60
2022-10-26T15:22:05.245Z,82.90
2022-10-26T15:23:05.216Z,82.10
2022-10-26T15:24:05.213Z,84.21
2022-10-26T15:25:05.205Z,84.15
2022-10-26T15:26:05.222Z,84.35
2022-10-26T15:27:05.182Z,84.25
2022-10-26T15:28:05.171Z,84.45
2022-10-26T15:29:05.154Z,84.95
2022-10-26T15:30:05.155Z,84.35
2022-10-26T15:31:05.167Z,83.95
2022-10-26T15:33:05.112Z,83.49
2022-10-26T15:34:05.109Z,82.89
2022-10-26T15:35:05.121Z,82.08
2022-10-26T15:36:05.086Z,81.58
2022-10-26T15:37:05.151Z,83.29
2022-10-26T15:38:05.072Z,84.39
2022-10-26T15:39:05.079Z,82.38
2022-10-26T15:40:05.046Z,81.48
2022-10-26T15:41:05.023Z,82.78
2022-10-26T15:42:05.014Z,83.49
2022-10-26T15:43:05.021Z,83.39
2022-10-26T15:44:05.023Z,82.42
2022-10-26T15:45:04.987Z,81.12
2022-10-26T15:46:05.044Z,81.82
2022-10-26T15:47:08.637Z,79.30
2022-10-26T15:48:04.967Z,82.32
2022-10-26T15:49:04.951Z,81.12
2022-10-26T15:50:04.998Z,84.33
2022-10-26T15:51:04.933Z,83.83
2022-10-26T15:53:04.920Z,83.83
2022-10-26T15:54:04.892Z,85.03
2022-10-26T15:55:04.893Z,82.66
2022-10-26T15:56:04.892Z,81.96
2022-10-26T15:58:04.843Z,81.35
2022-10-26T15:59:04.827Z,81.76
2022-10-26T16:00:04.825Z,81.96
2022-10-26T16:01:04.988Z,82.16
2022-10-26T16:02:04.983Z,82.36
2022-10-26T16:03:04.806Z,83.47
2022-10-26T16:04:04.778Z,83.26
2022-10-26T16:05:04.761Z,85.17
2022-10-26T16:06:04.791Z,83.20
2022-10-26T16:07:04.745Z,82.40
2022-10-26T16:08:04.733Z,84.31
2022-10-26T16:09:04.727Z,84.01
2022-10-26T16:10:04.714Z,85.82
2022-10-26T16:11:04.715Z,86.52
2022-10-26T16:12:04.707Z,84.41
2022-10-26T16:13:04.694Z,83.51
2022-10-26T16:14:04.666Z,83.95
2022-10-26T16:15:05.825Z,84.95
2022-10-26T16:16:04.664Z,85.36
2022-10-26T16:17:04.688Z,84.75
2022-10-26T16:18:04.646Z,83.25
2022-10-26T16:19:29.743Z,84.95
2022-10-26T16:20:08.880Z,83.84
2022-10-26T16:21:04.598Z,83.99
2022-10-26T16:22:04.643Z,84.69
2022-10-26T16:23:04.595Z,85.50
2022-10-26T16:24:04.565Z,82.68
2022-10-26T16:25:04.561Z,82.88
2022-10-26T16:26:04.543Z,84.59
2022-10-26T16:27:04.552Z,82.78
2022-10-26T16:28:04.518Z,83.39
2022-10-26T16:29:04.521Z,84.49
2022-10-26T16:30:04.499Z,84.39
2022-10-26T16:31:04.485Z,82.82
2022-10-26T16:32:04.473Z,83.18
2022-10-26T16:33:04.468Z,84.03
2022-10-26T16:34:04.460Z,84.13
2022-10-26T16:35:04.504Z,83.42
2022-10-26T16:36:04.431Z,84.03
2022-10-26T16:37:04.426Z,83.52
2022-10-26T16:38:04.411Z,83.32
2022-10-26T16:39:04.393Z,82.82
2022-10-26T16:40:04.395Z,83.62
2022-10-26T16:41:04.410Z,83.22
2022-10-26T16:42:04.418Z,84.03
2022-10-26T16:43:04.459Z,84.43
2022-10-26T16:44:04.461Z,84.74
2022-10-26T16:45:04.389Z,85.24
2022-10-26T16:46:04.379Z,86.65
2022-10-26T16:47:04.383Z,84.63
2022-10-26T16:48:04.356Z,84.43
2022-10-26T16:49:04.339Z,85.34
2022-10-26T16:50:04.339Z,84.23
2022-10-26T16:51:04.344Z,86.18
2022-10-26T16:52:04.324Z,85.48
2022-10-26T16:53:04.328Z,84.07